createdAt,value
2022-08-31T00:02:24.869Z,16.60
2022-08-31T00:04:52.671Z,16.50
2022-08-31T00:07:19.543Z,16.60
2022-08-31T00:09:46.757Z,16.50
2022-08-31T00:12:13.625Z,16.50
2022-08-31T00:14:40.461Z,16.50
2022-08-31T00:17:07.395Z,16.50
2022-08-31T00:19:34.248Z,16.40
2022-08-31T00:22:01.151Z,16.40
2022-08-31T00:24:28.216Z,16.40
2022-08-31T00:26:55.154Z,16.40
2022-08-31T00:29:22.131Z,16.30
2022-08-31T00:31:49.042Z,16.30
2022-08-31T00:34:16.080Z,16.30
2022-08-31T00:36:43.004Z,16.30
2022-08-31T00:39:10.067Z,16.30
2022-08-31T00:41:38.782Z,16.30
2022-08-31T00:44:08.874Z,16.30
2022-08-31T00:46:40.322Z,16.20
2022-08-31T00:49:26.799Z,16.20
2022-08-31T00:52:09.704Z,16.20
2022-08-31T00:54:44.296Z,16.10
2022-08-31T00:57:12.796Z,16.10
2022-08-31T00:59:44.846Z,16.00
2022-08-31T01:02:11.971Z,16.00
2022-08-31T01:04:38.998Z,15.90
2022-08-31T01:07:07.817Z,15.90
2022-08-31T01:09:43.507Z,15.90
2022-08-31T01:12:22.751Z,15.80
2022-08-31T01:14:49.691Z,15.80
2022-08-31T01:17:17.818Z,15.80
2022-08-31T01:19:44.625Z,15.80
2022-08-31T01:22:32.912Z,15.80
2022-08-31T01:25:00.574Z,15.80
2022-08-31T01:27:32.230Z,15.70
2022-08-31T01:30:05.588Z,15.70
2022-08-31T01:32:32.563Z,15.80
2022-08-31T01:34:59.399Z,15.70
2022-08-31T01:37:29.517Z,16.00
2022-08-31T01:39:57.443Z,15.70
2022-08-31T01:42:32.899Z,15.60
2022-08-31T01:47:28.404Z,15.50
2022-08-31T01:49:57.632Z,15.50
2022-08-31T01:52:27.593Z,15.40
2022-08-31T01:54:55.624Z,15.40
2022-08-31T01:57:26.940Z,15.40
2022-08-31T02:00:04.082Z,15.40
2022-08-31T02:02:31.012Z,15.30
2022-08-31T02:04:59.056Z,15.30
2022-08-31T02:07:26.649Z,15.30
2022-08-31T02:09:54.812Z,15.30
2022-08-31T02:12:21.653Z,15.20
2022-08-31T02:14:48.602Z,15.20
2022-08-31T02:17:15.436Z,15.20
2022-08-31T02:19:42.237Z,15.10
2022-08-31T02:22:09.003Z,15.20
2022-08-31T02:24:35.783Z,15.20
2022-08-31T02:27:02.812Z,15.10
2022-08-31T02:29:29.652Z,15.10
2022-08-31T02:31:58.602Z,15.10
2022-08-31T02:34:25.605Z,15.10
2022-08-31T02:36:52.562Z,15.00
2022-08-31T02:39:19.402Z,15.00
2022-08-31T02:41:46.156Z,15.00
2022-08-31T02:44:12.963Z,14.90
2022-08-31T02:46:39.881Z,14.90
2022-08-31T02:49:06.761Z,14.90
2022-08-31T02:51:33.621Z,14.80
2022-08-31T02:54:00.420Z,14.30
2022-08-31T02:56:27.202Z,14.70
2022-08-31T02:58:55.188Z,14.80
2022-08-31T03:01:23.439Z,14.80
2022-08-31T03:03:50.453Z,14.80
2022-08-31T03:06:18.958Z,14.70
2022-08-31T03:08:47.102Z,14.70
2022-08-31T03:11:14.332Z,14.70
2022-08-31T03:13:42.207Z,14.70
2022-08-31T03:16:12.261Z,14.70
2022-08-31T03:18:39.214Z,14.60
2022-08-31T03:21:06.234Z,14.60
2022-08-31T03:23:33.069Z,14.60
2022-08-31T03:25:59.994Z,14.70
2022-08-31T03:28:26.774Z,14.70
2022-08-31T03:30:53.600Z,14.60
2022-08-31T03:33:20.594Z,14.50
2022-08-31T03:38:16.088Z,14.60
2022-08-31T03:40:44.515Z,14.40
2022-08-31T03:43:12.128Z,14.40
2022-08-31T03:45:41.333Z,14.40
2022-08-31T03:48:12.475Z,14.40
2022-08-31T03:50:40.823Z,14.30
2022-08-31T03:53:09.093Z,14.30
2022-08-31T03:55:39.783Z,14.30
2022-08-31T03:58:07.642Z,14.30
2022-08-31T04:00:35.202Z,14.30
2022-08-31T04:03:02.280Z,14.20
2022-08-31T04:05:30.839Z,14.20
2022-08-31T04:07:57.830Z,14.20
2022-08-31T04:10:24.579Z,14.20
2022-08-31T04:12:51.928Z,14.20
2022-08-31T04:15:19.276Z,14.20
2022-08-31T04:17:47.284Z,14.20
2022-08-31T04:20:14.844Z,14.10
2022-08-31T04:22:41.631Z,14.10
2022-08-31T04:25:10.470Z,14.10
2022-08-31T04:27:40.331Z,14.10
2022-08-31T04:30:09.458Z,14.00
2022-08-31T04:32:36.550Z,14.00
2022-08-31T04:35:04.193Z,14.00
2022-08-31T04:37:31.136Z,14.00
2022-08-31T04:40:00.274Z,14.00
2022-08-31T04:42:30.299Z,14.00
2022-08-31T04:44:57.087Z,13.90
2022-08-31T04:47:23.984Z,13.90
2022-08-31T04:49:50.769Z,13.90
2022-08-31T04:52:17.575Z,13.90
2022-08-31T04:54:46.713Z,13.80
2022-08-31T04:57:13.715Z,13.80
2022-08-31T04:59:40.588Z,13.80
2022-08-31T05:02:07.549Z,13.80
2022-08-31T05:04:34.550Z,14.30
2022-08-31T05:07:01.707Z,13.80
2022-08-31T05:09:28.598Z,13.80
2022-08-31T05:11:56.087Z,13.80
2022-08-31T05:14:24.256Z,13.80
2022-08-31T05:16:52.224Z,13.80
2022-08-31T05:19:20.288Z,13.80
2022-08-31T05:21:47.315Z,14.00
2022-08-31T05:24:17.581Z,13.80
2022-08-31T05:26:50.310Z,13.90
2022-08-31T05:29:19.737Z,13.90
2022-08-31T05:31:51.497Z,13.80
2022-08-31T05:34:20.222Z,13.90
2022-08-31T05:36:52.195Z,13.80
2022-08-31T05:39:19.714Z,13.80
2022-08-31T05:41:47.542Z,14.00
2022-08-31T05:44:15.835Z,13.90
2022-08-31T05:46:42.833Z,13.90
2022-08-31T05:49:10.927Z,13.90
2022-08-31T05:51:39.567Z,13.90
2022-08-31T05:54:07.752Z,14.00
2022-08-31T05:56:35.509Z,14.00
2022-08-31T05:59:02.686Z,14.00
2022-08-31T06:01:36.787Z,14.00
2022-08-31T06:04:04.369Z,14.10
2022-08-31T06:06:31.228Z,14.10
2022-08-31T06:08:58.688Z,14.10
2022-08-31T06:11:29.354Z,14.20
2022-08-31T06:13:58.528Z,14.20
2022-08-31T06:16:26.994Z,14.30
2022-08-31T06:18:55.723Z,14.40
2022-08-31T06:21:25.842Z,14.40
2022-08-31T06:23:54.328Z,14.50
2022-08-31T06:26:23.334Z,14.60
2022-08-31T06:28:52.642Z,14.70
2022-08-31T06:31:23.765Z,15.30
2022-08-31T06:38:48.315Z,18.60
2022-08-31T06:41:37.063Z,19.70
2022-08-31T06:44:10.990Z,20.70
2022-08-31T06:46:39.609Z,21.70
2022-08-31T06:49:08.627Z,21.80
2022-08-31T06:51:38.086Z,21.90
2022-08-31T06:54:28.617Z,22.00
2022-08-31T06:57:00.086Z,22.30
2022-08-31T06:59:29.249Z,22.90
2022-08-31T07:01:57.911Z,23.50
2022-08-31T07:04:24.983Z,23.80
2022-08-31T07:06:52.015Z,23.90
2022-08-31T07:09:19.107Z,23.70
2022-08-31T07:11:49.752Z,23.70
2022-08-31T07:14:19.228Z,23.80
2022-08-31T07:19:14.900Z,24.20
2022-08-31T07:21:43.263Z,23.80
2022-08-31T07:24:11.707Z,24.00
2022-08-31T07:26:42.541Z,23.70
2022-08-31T07:29:10.830Z,23.70
2022-08-31T07:31:47.949Z,23.70
2022-08-31T07:34:20.888Z,23.80
2022-08-31T07:37:07.039Z,23.90
2022-08-31T07:39:53.548Z,23.70
2022-08-31T07:42:30.384Z,23.60
2022-08-31T07:45:00.027Z,23.70
2022-08-31T07:47:29.259Z,23.80
2022-08-31T07:49:58.604Z,24.20
2022-08-31T07:52:29.210Z,24.60
2022-08-31T07:55:06.503Z,25.00
2022-08-31T07:57:44.329Z,25.40
2022-08-31T08:00:14.658Z,25.60
2022-08-31T08:02:50.757Z,25.90
2022-08-31T08:05:27.036Z,26.00
2022-08-31T08:07:58.703Z,26.10
2022-08-31T08:10:26.746Z,26.30
2022-08-31T08:13:04.227Z,26.20
2022-08-31T08:15:35.435Z,26.20
2022-08-31T08:18:05.232Z,26.20
2022-08-31T08:20:37.837Z,26.30
2022-08-31T08:23:18.411Z,26.50
2022-08-31T08:25:55.589Z,26.50
2022-08-31T08:28:38.581Z,26.50
2022-08-31T08:31:11.535Z,26.40
2022-08-31T08:33:39.803Z,26.20
2022-08-31T08:36:08.353Z,26.10
2022-08-31T08:38:42.485Z,26.10
2022-08-31T08:41:24.164Z,26.20
2022-08-31T08:43:58.685Z,26.10
2022-08-31T08:46:40.188Z,26.10
2022-08-31T08:49:49.695Z,26.20
2022-08-31T08:52:41.558Z,26.20
2022-08-31T08:55:12.605Z,26.20
2022-08-31T08:57:42.674Z,26.30
2022-08-31T09:00:19.061Z,26.30
2022-08-31T09:02:58.262Z,26.40
2022-08-31T09:05:47.055Z,26.40
2022-08-31T09:08:25.771Z,26.30
2022-08-31T09:11:12.412Z,26.30
2022-08-31T09:13:56.112Z,26.30
2022-08-31T09:16:40.842Z,26.10
2022-08-31T09:19:14.614Z,26.00
2022-08-31T09:21:53.694Z,25.90
2022-08-31T09:24:26.783Z,25.90
2022-08-31T09:27:20.899Z,25.90
2022-08-31T09:30:00.840Z,25.90
2022-08-31T09:32:34.908Z,25.70
2022-08-31T09:35:09.186Z,25.60
2022-08-31T09:37:46.173Z,25.50
2022-08-31T09:40:23.401Z,25.40
2022-08-31T09:43:23.873Z,25.30
2022-08-31T09:46:19.515Z,25.20
2022-08-31T09:48:56.363Z,25.10
2022-08-31T09:51:29.513Z,24.90
2022-08-31T09:54:24.678Z,25.10
2022-08-31T09:56:58.581Z,25.10
2022-08-31T09:59:47.956Z,25.20
2022-08-31T10:02:26.222Z,25.10
2022-08-31T10:05:03.904Z,25.20
2022-08-31T10:07:45.639Z,25.30
2022-08-31T10:10:35.796Z,25.30
2022-08-31T10:13:14.949Z,25.30
2022-08-31T10:16:00.101Z,25.20
2022-08-31T10:18:57.654Z,24.90
2022-08-31T10:21:44.182Z,24.70
2022-08-31T10:24:28.489Z,24.80
2022-08-31T10:27:04.506Z,24.90
2022-08-31T10:29:47.805Z,25.00
2022-08-31T10:32:41.095Z,25.10
2022-08-31T10:35:51.186Z,24.90
2022-08-31T10:38:26.215Z,25.10
2022-08-31T10:41:19.340Z,24.90
2022-08-31T10:43:53.734Z,24.90
2022-08-31T10:46:20.869Z,25.00
2022-08-31T10:48:54.705Z,24.90
2022-08-31T10:51:36.841Z,24.90
2022-08-31T10:54:28.996Z,25.00
2022-08-31T10:57:21.483Z,25.10
2022-08-31T11:00:01.802Z,25.00
2022-08-31T11:02:48.560Z,25.20
2022-08-31T11:05:33.500Z,25.30
2022-08-31T11:08:26.809Z,25.40
2022-08-31T11:10:55.964Z,25.40
2022-08-31T11:14:00.556Z,25.40
2022-08-31T11:16:41.571Z,25.40
2022-08-31T11:19:54.597Z,25.40
2022-08-31T11:22:29.630Z,25.50
2022-08-31T11:25:03.503Z,25.60
2022-08-31T11:27:37.917Z,25.60
2022-08-31T11:30:26.782Z,25.70
2022-08-31T11:32:57.666Z,25.70
2022-08-31T11:35:48.915Z,25.70
2022-08-31T11:38:41.466Z,25.80
2022-08-31T11:41:14.066Z,25.90
2022-08-31T11:43:47.080Z,25.90
2022-08-31T11:46:41.145Z,25.80
2022-08-31T11:49:10.988Z,25.80
2022-08-31T11:51:46.169Z,25.70
2022-08-31T11:54:13.636Z,25.70
2022-08-31T11:56:47.641Z,25.90
2022-08-31T11:59:35.516Z,25.90
2022-08-31T12:02:26.201Z,26.00
2022-08-31T12:04:53.303Z,26.10
2022-08-31T12:07:28.304Z,26.00
2022-08-31T12:10:27.833Z,26.20
2022-08-31T12:13:18.769Z,26.30
2022-08-31T12:16:04.944Z,26.50
2022-08-31T12:19:09.594Z,26.50
2022-08-31T12:22:01.295Z,26.30
2022-08-31T12:24:56.268Z,26.30
2022-08-31T12:27:32.265Z,26.30
2022-08-31T12:30:25.408Z,26.40
2022-08-31T12:33:16.580Z,26.60
2022-08-31T12:35:49.351Z,26.50
2022-08-31T12:38:22.453Z,26.30
2022-08-31T12:40:57.347Z,26.10
2022-08-31T12:43:26.007Z,26.10
2022-08-31T12:46:02.105Z,26.20
2022-08-31T12:49:01.632Z,26.10
2022-08-31T12:51:39.296Z,26.10
2022-08-31T12:54:22.901Z,26.00
2022-08-31T12:57:10.018Z,26.00
2022-08-31T13:00:13.138Z,26.00
2022-08-31T13:02:45.891Z,26.30
2022-08-31T13:05:23.028Z,26.40
2022-08-31T13:07:50.441Z,26.60
2022-08-31T13:10:36.731Z,26.50
2022-08-31T13:13:09.127Z,26.00
2022-08-31T13:15:43.839Z,26.70
2022-08-31T13:18:14.814Z,26.80
2022-08-31T13:20:44.232Z,26.80
2022-08-31T13:23:15.229Z,26.80
2022-08-31T13:25:42.982Z,26.70
2022-08-31T13:28:15.111Z,26.70
2022-08-31T13:30:54.911Z,26.80
2022-08-31T13:33:31.351Z,27.00
2022-08-31T13:36:32.479Z,27.10
2022-08-31T13:39:22.037Z,27.30
2022-08-31T13:42:08.413Z,27.20
2022-08-31T13:44:39.860Z,26.80
2022-08-31T13:47:32.061Z,26.60
2022-08-31T13:50:15.410Z,26.60
2022-08-31T13:53:16.097Z,26.60
2022-08-31T13:55:43.695Z,26.70
2022-08-31T13:58:32.399Z,26.90
2022-08-31T14:01:26.171Z,27.10
2022-08-31T14:04:00.138Z,26.90
2022-08-31T14:06:38.955Z,26.70
2022-08-31T14:09:17.310Z,26.40
2022-08-31T14:12:02.447Z,26.20
2022-08-31T14:14:39.907Z,26.10
2022-08-31T14:17:12.331Z,26.00
2022-08-31T14:19:39.107Z,25.90
2022-08-31T14:22:33.090Z,26.00
2022-08-31T14:25:00.927Z,26.20
2022-08-31T14:27:29.219Z,26.30
2022-08-31T14:29:57.671Z,26.50
2022-08-31T14:32:25.565Z,26.60
2022-08-31T14:34:53.363Z,26.70
2022-08-31T14:37:20.279Z,26.50
2022-08-31T14:39:53.932Z,26.50
2022-08-31T14:42:32.285Z,26.40
2022-08-31T14:45:08.315Z,26.30
2022-08-31T14:47:43.875Z,26.00
2022-08-31T14:50:23.456Z,25.80
2022-08-31T14:52:58.471Z,25.80
2022-08-31T14:55:29.977Z,26.00
2022-08-31T14:58:03.087Z,26.10
2022-08-31T15:00:31.734Z,26.30
2022-08-31T15:02:59.872Z,26.40
2022-08-31T15:05:26.797Z,26.50
2022-08-31T15:07:55.382Z,26.50
2022-08-31T15:10:27.082Z,26.60
2022-08-31T15:12:55.346Z,26.60
2022-08-31T15:15:22.413Z,26.60
2022-08-31T15:17:51.653Z,26.60
2022-08-31T15:20:21.540Z,26.60
2022-08-31T15:22:49.428Z,26.50
2022-08-31T15:25:18.546Z,26.60
2022-08-31T15:27:46.713Z,26.50
2022-08-31T15:30:16.092Z,26.50
2022-08-31T15:32:45.214Z,26.50
2022-08-31T15:35:18.062Z,26.50
2022-08-31T15:37:56.287Z,26.50
2022-08-31T15:40:25.227Z,26.50
2022-08-31T15:42:56.283Z,26.40
2022-08-31T15:45:23.446Z,26.30
2022-08-31T15:48:08.975Z,26.30
2022-08-31T15:50:35.980Z,26.20
2022-08-31T15:53:11.731Z,26.20
2022-08-31T15:55:41.084Z,26.10
2022-08-31T15:58:12.755Z,26.10
2022-08-31T16:00:42.098Z,26.20
2022-08-31T16:03:09.629Z,26.20
2022-08-31T16:05:39.628Z,26.20
2022-08-31T16:08:11.419Z,26.20
2022-08-31T16:10:43.112Z,26.20
2022-08-31T16:13:10.289Z,26.10
2022-08-31T16:15:38.819Z,26.00
2022-08-31T16:18:05.993Z,26.10
2022-08-31T16:20:34.537Z,26.00
2022-08-31T16:23:03.129Z,25.90
2022-08-31T16:25:32.073Z,25.90
2022-08-31T16:28:15.226Z,25.80
2022-08-31T16:30:43.854Z,25.70
2022-08-31T16:33:12.091Z,25.60
2022-08-31T16:35:39.272Z,25.50
2022-08-31T16:38:07.152Z,25.50
2022-08-31T16:40:35.490Z,25.40
2022-08-31T16:43:02.800Z,25.40
2022-08-31T16:45:29.682Z,25.50
2022-08-31T16:48:16.560Z,25.30
2022-08-31T16:50:48.669Z,25.30
2022-08-31T16:53:18.121Z,25.20
2022-08-31T16:55:47.528Z,25.10
2022-08-31T16:58:24.900Z,25.20
2022-08-31T17:01:12.777Z,25.60
2022-08-31T17:03:41.772Z,25.40
2022-08-31T17:06:08.779Z,25.40
2022-08-31T17:08:44.242Z,25.10
2022-08-31T17:11:23.753Z,24.90
2022-08-31T17:13:58.269Z,24.80
2022-08-31T17:16:28.709Z,24.90
2022-08-31T17:18:57.566Z,24.80
2022-08-31T17:21:28.222Z,24.40
2022-08-31T17:23:58.596Z,24.30
2022-08-31T17:26:30.953Z,24.20
2022-08-31T17:29:06.889Z,24.20
2022-08-31T17:31:40.454Z,24.10
2022-08-31T17:34:07.768Z,24.00
2022-08-31T17:36:37.625Z,24.00
2022-08-31T17:39:05.265Z,23.80
2022-08-31T17:41:32.122Z,23.80
2022-08-31T17:43:59.997Z,23.80
2022-08-31T17:46:27.749Z,23.60
2022-08-31T17:48:56.127Z,23.50
2022-08-31T17:51:27.361Z,23.40
2022-08-31T17:54:03.439Z,23.60
2022-08-31T17:56:47.435Z,23.20
2022-08-31T17:59:21.146Z,23.10
2022-08-31T18:01:51.619Z,23.20
2022-08-31T18:04:21.154Z,23.30
2022-08-31T18:06:51.544Z,23.20
2022-08-31T18:11:47.774Z,22.70
2022-08-31T18:14:16.685Z,22.50
2022-08-31T18:16:45.007Z,22.70
2022-08-31T18:19:13.513Z,22.40
2022-08-31T18:21:40.771Z,22.40
2022-08-31T18:24:08.291Z,22.20
2022-08-31T18:26:45.271Z,22.10
2022-08-31T18:29:16.992Z,21.60
2022-08-31T18:31:50.008Z,22.20
2022-08-31T18:34:21.278Z,21.90
2022-08-31T18:36:53.302Z,22.00
2022-08-31T18:39:50.059Z,21.60
2022-08-31T18:42:32.309Z,21.50
2022-08-31T18:45:19.570Z,21.30
2022-08-31T18:48:23.926Z,21.20
2022-08-31T18:50:44.644Z,21.10
2022-08-31T18:53:15.466Z,21.20
2022-08-31T18:55:54.910Z,20.90
2022-08-31T18:58:21.746Z,20.80
2022-08-31T19:01:00.206Z,21.00
2022-08-31T19:03:28.312Z,20.70
2022-08-31T19:05:56.755Z,21.40
2022-08-31T19:08:24.287Z,20.50
2022-08-31T19:10:51.380Z,20.50
2022-08-31T19:13:18.446Z,20.50
2022-08-31T19:15:45.796Z,20.60
2022-08-31T19:18:15.471Z,20.50
2022-08-31T19:20:42.391Z,20.40
2022-08-31T19:23:09.411Z,20.20
2022-08-31T19:25:42.814Z,20.10
2022-08-31T19:28:10.175Z,20.00
2022-08-31T19:30:38.268Z,20.30
2022-08-31T19:33:09.834Z,20.00
2022-08-31T19:35:38.381Z,19.90
2022-08-31T19:40:38.883Z,19.70
2022-08-31T19:45:54.369Z,19.60
2022-08-31T19:48:23.705Z,19.40
2022-08-31T19:50:52.318Z,19.30
2022-08-31T19:53:21.286Z,19.30
2022-08-31T19:55:51.427Z,19.20
2022-08-31T19:58:25.499Z,19.10
2022-08-31T20:01:04.296Z,19.10
2022-08-31T20:03:34.198Z,19.00
2022-08-31T20:06:09.761Z,19.00
2022-08-31T20:08:36.935Z,18.90
2022-08-31T20:11:06.293Z,19.20
2022-08-31T20:13:35.188Z,18.80
2022-08-31T20:16:04.704Z,18.80
2022-08-31T20:18:32.672Z,18.80
2022-08-31T20:21:01.329Z,18.80
2022-08-31T20:23:30.369Z,18.80
2022-08-31T20:25:58.283Z,18.70
2022-08-31T20:28:28.045Z,18.70
2022-08-31T20:30:58.112Z,18.60
2022-08-31T20:33:26.744Z,18.60
2022-08-31T20:35:53.869Z,18.80
2022-08-31T20:38:21.350Z,18.80
2022-08-31T20:40:52.437Z,18.70
2022-08-31T20:43:21.283Z,18.60
2022-08-31T20:45:48.896Z,18.30
2022-08-31T20:48:34.290Z,18.20
2022-08-31T20:51:16.375Z,18.20
2022-08-31T20:53:48.379Z,18.10
2022-08-31T20:56:17.802Z,18.10
2022-08-31T20:58:48.439Z,18.00
2022-08-31T21:01:16.332Z,18.00
2022-08-31T21:03:43.273Z,17.90
2022-08-31T21:06:12.316Z,17.80
2022-08-31T21:08:40.969Z,17.90
2022-08-31T21:11:17.830Z,18.20
2022-08-31T21:13:46.616Z,17.70
2022-08-31T21:16:14.708Z,17.80
2022-08-31T21:18:42.837Z,17.70
2022-08-31T21:21:14.585Z,17.50
2022-08-31T21:23:41.728Z,17.80
2022-08-31T21:26:08.862Z,17.70
2022-08-31T21:28:39.501Z,17.60
2022-08-31T21:31:16.551Z,17.60
2022-08-31T21:34:00.840Z,17.50
2022-08-31T21:36:29.589Z,17.50
2022-08-31T21:38:59.835Z,17.50
2022-08-31T21:41:28.804Z,17.40
2022-08-31T21:43:57.206Z,17.30
2022-08-31T21:46:26.928Z,17.30
2022-08-31T21:48:58.485Z,17.20
2022-08-31T21:51:31.658Z,17.30
2022-08-31T21:54:06.799Z,17.20
2022-08-31T21:56:38.167Z,17.20
2022-08-31T21:59:06.648Z,17.20
2022-08-31T22:01:35.263Z,17.10
2022-08-31T22:04:02.683Z,17.10
2022-08-31T22:06:31.602Z,17.10
2022-08-31T22:09:01.355Z,17.00
2022-08-31T22:11:31.398Z,17.00
2022-08-31T22:13:59.422Z,16.90
2022-08-31T22:16:27.806Z,16.90
2022-08-31T22:19:01.797Z,16.90
2022-08-31T22:21:32.309Z,16.90
2022-08-31T22:24:03.827Z,17.00
2022-08-31T22:26:34.455Z,16.80
2022-08-31T22:29:01.426Z,16.70
2022-08-31T22:31:28.795Z,16.70
2022-08-31T22:33:55.901Z,16.80
2022-08-31T22:36:31.169Z,16.60
2022-08-31T22:39:03.331Z,16.70
2022-08-31T22:41:32.760Z,16.90
2022-08-31T22:44:01.693Z,16.90
2022-08-31T22:46:28.631Z,16.60
2022-08-31T22:48:59.608Z,16.30
2022-08-31T22:51:27.180Z,17.10
2022-08-31T22:53:54.150Z,16.50
2022-08-31T22:56:26.764Z,16.50
2022-08-31T22:58:55.250Z,17.00
2022-08-31T23:01:30.481Z,16.40
2022-08-31T23:04:00.724Z,16.40
2022-08-31T23:06:30.340Z,16.70
2022-08-31T23:08:58.467Z,16.30
2022-08-31T23:11:26.947Z,16.20
2022-08-31T23:13:55.782Z,16.20
2022-08-31T23:16:33.381Z,16.10
2022-08-31T23:19:13.862Z,16.00
2022-08-31T23:21:45.079Z,16.00
2022-08-31T23:24:21.139Z,15.90
2022-08-31T23:26:49.813Z,15.90
2022-08-31T23:29:21.804Z,15.70
2022-08-31T23:31:48.847Z,15.70
2022-08-31T23:34:16.903Z,15.60
2022-08-31T23:36:48.885Z,15.60
2022-08-31T23:39:17.975Z,15.50
2022-08-31T23:41:45.290Z,15.40
2022-08-31T23:44:13.285Z,15.40
2022-08-31T23:46:43.402Z,15.30
2022-08-31T23:49:14.585Z,15.30
2022-08-31T23:51:41.562Z,15.20
2022-08-31T23:54:12.498Z,15.20
2022-08-31T23:56:41.715Z,15.20
2022-08-31T23:59:11.806Z,15.20
